Time;durP1;ratioP1;P1;durP2;ratioP2;P2;SDS_P1;SDS_P2;PMS_P1;PMS_P2;Temp;Humidity;BMP_temperature;BMP_pressure;BME280_temperature;BME280_humidity;BME280_pressure;Samples;Min_cycle;Max_cycle;Signal;HPM_P1;HPM_P2
2023/05/07 00:01:06;;;;;;;32.75;20.48;;;10.80;99.90;;;;;;4974513;28;20041;-69
2023/05/07 00:03:32;;;;;;;35.90;20.52;;;10.80;99.90;;;;;;4975112;28;20123;-70
2023/05/07 00:05:58;;;;;;;31.45;18.95;;;10.80;99.90;;;;;;4973271;28;20056;-69
2023/05/07 00:08:23;;;;;;;33.13;20.10;;;10.70;99.90;;;;;;4990280;28;20027;-71
2023/05/07 00:10:49;;;;;;;29.65;19.38;;;10.70;99.90;;;;;;4989781;28;20031;-71
2023/05/07 00:13:15;;;;;;;32.83;19.90;;;10.70;99.90;;;;;;4991306;28;20106;-69
2023/05/07 00:15:40;;;;;;;32.70;19.98;;;10.60;99.90;;;;;;4989644;28;20019;-71
2023/05/07 00:18:06;;;;;;;28.75;17.42;;;10.60;99.90;;;;;;4973877;28;20034;-70
2023/05/07 00:20:32;;;;;;;33.78;20.42;;;10.60;99.90;;;;;;4987751;28;20042;-72
2023/05/07 00:22:57;;;;;;;33.28;19.08;;;10.50;99.90;;;;;;4988449;28;20562;-70
2023/05/07 00:25:23;;;;;;;35.38;20.45;;;10.50;99.90;;;;;;4989860;28;20058;-72
2023/05/07 00:27:48;;;;;;;33.08;19.17;;;10.50;99.90;;;;;;4991057;28;20038;-71
2023/05/07 00:30:14;;;;;;;35.45;20.13;;;10.50;99.90;;;;;;4988291;28;20058;-69
2023/05/07 00:32:40;;;;;;;31.02;19.40;;;10.50;99.90;;;;;;4988463;28;20468;-69
2023/05/07 00:35:06;;;;;;;30.33;18.77;;;10.40;99.90;;;;;;4991236;28;20085;-70
2023/05/07 00:37:32;;;;;;;32.78;20.23;;;10.40;99.90;;;;;;4990441;28;20057;-70
2023/05/07 00:39:57;;;;;;;33.65;20.38;;;10.40;99.90;;;;;;4988683;28;20053;-68
2023/05/07 00:42:23;;;;;;;33.20;19.88;;;10.40;99.90;;;;;;4990706;28;20039;-69
2023/05/07 00:44:50;;;;;;;35.58;19.88;;;10.40;99.90;;;;;;4990429;28;20015;-68
2023/05/07 00:47:16;;;;;;;34.47;20.85;;;10.40;99.90;;;;;;4988487;28;20121;-71
2023/05/07 00:49:43;;;;;;;34.33;20.90;;;10.40;99.90;;;;;;4990476;28;20018;-69
2023/05/07 00:52:15;;;;;;;34.35;20.30;;;10.40;99.90;;;;;;4989328;28;20022;-68
2023/05/07 00:54:42;;;;;;;34.35;20.25;;;10.40;99.90;;;;;;4989942;28;20042;-71
2023/05/07 00:57:09;;;;;;;36.92;21.25;;;10.40;99.90;;;;;;4990584;28;20049;-68
2023/05/07 00:59:35;;;;;;;34.92;20.70;;;10.40;99.90;;;;;;4970746;28;20105;-68
2023/05/07 01:02:01;;;;;;;34.22;20.10;;;10.30;99.90;;;;;;4973565;28;20633;-70
2023/05/07 01:04:27;;;;;;;30.92;18.25;;;10.30;99.90;;;;;;4988714;28;20038;-67
2023/05/07 01:06:56;;;;;;;34.28;19.77;;;10.30;99.90;;;;;;4989191;28;20041;-69
2023/05/07 01:09:22;;;;;;;31.67;19.00;;;10.30;99.90;;;;;;4988386;28;20050;-69
2023/05/07 01:11:50;;;;;;;32.53;20.33;;;10.20;99.90;;;;;;4988522;28;20046;-67
2023/05/07 01:14:16;;;;;;;33.67;19.90;;;10.20;99.90;;;;;;4972989;28;20019;-68
2023/05/07 01:16:42;;;;;;;35.67;21.23;;;10.20;99.90;;;;;;4971187;28;20027;-71
2023/05/07 01:19:16;;;;;;;35.78;21.60;;;10.10;99.90;;;;;;4989976;28;20035;-70
2023/05/07 01:21:46;;;;;;;35.28;20.20;;;10.10;99.90;;;;;;4988931;28;20097;-69
2023/05/07 01:24:12;;;;;;;35.42;21.08;;;10.10;99.90;;;;;;4988989;28;20089;-69
2023/05/07 01:26:38;;;;;;;35.20;20.83;;;10.00;99.90;;;;;;4987778;28;20026;-70
2023/05/07 01:29:04;;;;;;;33.25;20.48;;;10.00;99.90;;;;;;4990066;28;20105;-67
2023/05/07 01:31:30;;;;;;;34.05;20.98;;;10.00;99.90;;;;;;4988179;28;20684;-69
2023/05/07 01:33:57;;;;;;;34.67;19.30;;;10.00;99.90;;;;;;4990019;28;20030;-70
2023/05/07 01:36:26;;;;;;;36.35;19.98;;;10.00;99.90;;;;;;4970594;28;20034;-67
2023/05/07 01:38:52;;;;;;;33.97;20.60;;;9.90;99.90;;;;;;4991298;28;20026;-70
2023/05/07 01:41:19;;;;;;;29.20;16.80;;;9.90;99.90;;;;;;4991589;28;20023;-69
2023/05/07 01:43:46;;;;;;;35.80;19.95;;;9.90;99.90;;;;;;4992009;28;20034;-71
2023/05/07 01:46:12;;;;;;;32.38;20.05;;;9.80;99.90;;;;;;4991865;28;20078;-73
2023/05/07 01:48:38;;;;;;;30.85;19.55;;;9.80;99.90;;;;;;4974562;28;20082;-70
2023/05/07 01:51:05;;;;;;;32.60;19.17;;;9.80;99.90;;;;;;4991380;28;20078;-68
2023/05/07 01:53:37;;;;;;;32.15;18.92;;;9.80;99.90;;;;;;4992163;28;20058;-68
2023/05/07 01:56:03;;;;;;;34.28;20.52;;;9.80;99.90;;;;;;4992848;28;20027;-71
2023/05/07 01:58:29;;;;;;;32.58;18.83;;;9.80;99.90;;;;;;4995763;28;20018;-68
2023/05/07 02:00:54;;;;;;;36.92;20.65;;;9.80;99.90;;;;;;4996083;28;20058;-71
2023/05/07 02:03:20;;;;;;;34.63;19.40;;;9.80;99.90;;;;;;4992272;28;20504;-69
2023/05/07 02:05:46;;;;;;;33.70;20.08;;;9.80;99.90;;;;;;4995418;28;20027;-69
2023/05/07 02:08:11;;;;;;;34.60;20.27;;;9.70;99.90;;;;;;4995599;28;20034;-69
2023/05/07 02:10:37;;;;;;;34.10;19.58;;;9.80;99.90;;;;;;4978428;28;20031;-68
2023/05/07 02:13:03;;;;;;;38.95;21.83;;;9.80;99.90;;;;;;4994283;28;20439;-72
2023/05/07 02:15:28;;;;;;;34.97;18.90;;;9.80;99.90;;;;;;4995384;28;20027;-68
2023/05/07 02:18:03;;;;;;;33.67;19.08;;;9.80;99.90;;;;;;4994968;28;20089;-67
2023/05/07 02:20:29;;;;;;;34.45;20.23;;;9.70;99.90;;;;;;4995364;28;20038;-71
2023/05/07 02:22:54;;;;;;;36.53;21.40;;;9.70;99.90;;;;;;4994877;28;20045;-69
2023/05/07 02:25:20;;;;;;;35.40;20.92;;;9.80;99.90;;;;;;4995187;28;20114;-70
2023/05/07 02:27:45;;;;;;;32.33;19.75;;;9.70;99.90;;;;;;4995410;28;20027;-70
2023/05/07 02:30:11;;;;;;;33.08;18.17;;;9.70;99.90;;;;;;4995176;28;20035;-68
2023/05/07 02:32:37;;;;;;;35.35;19.50;;;9.70;99.90;;;;;;4994695;28;20391;-68
2023/05/07 02:35:03;;;;;;;35.15;18.98;;;9.70;99.90;;;;;;4995604;28;20049;-70
2023/05/07 02:37:28;;;;;;;31.77;19.02;;;9.70;99.90;;;;;;4995347;28;20109;-70
2023/05/07 02:39:54;;;;;;;34.03;19.40;;;9.70;99.90;;;;;;4994525;28;20054;-73
2023/05/07 02:42:19;;;;;;;32.17;19.02;;;9.60;99.90;;;;;;4977734;28;20034;-71
2023/05/07 02:44:45;;;;;;;34.03;19.30;;;9.60;99.90;;;;;;4994631;28;20034;-70
2023/05/07 02:47:12;;;;;;;37.38;19.95;;;9.60;99.90;;;;;;4994878;28;20023;-70
2023/05/07 02:49:38;;;;;;;30.50;15.88;;;9.60;99.90;;;;;;4994512;28;20022;-69
2023/05/07 02:52:03;;;;;;;33.80;19.27;;;9.60;99.90;;;;;;4995037;28;20414;-70
2023/05/07 02:54:29;;;;;;;31.85;18.38;;;9.60;99.90;;;;;;4994421;28;20035;-73
2023/05/07 02:56:56;;;;;;;32.80;17.73;;;9.60;99.90;;;;;;4994687;28;20026;-68
2023/05/07 02:59:21;;;;;;;33.25;18.90;;;9.60;99.90;;;;;;4993597;28;20054;-70
2023/05/07 03:01:48;;;;;;;33.20;17.00;;;9.60;99.90;;;;;;4994614;28;20033;-67
2023/05/07 03:04:13;;;;;;;33.60;19.45;;;9.60;99.90;;;;;;4993164;28;20038;-69
2023/05/07 03:06:39;;;;;;;33.75;18.30;;;9.60;99.90;;;;;;4976800;28;20151;-67
2023/05/07 03:09:04;;;;;;;35.95;18.52;;;9.60;99.90;;;;;;4994852;28;20046;-70
2023/05/07 03:11:30;;;;;;;32.88;18.50;;;9.60;99.90;;;;;;4993941;28;20044;-71
2023/05/07 03:13:56;;;;;;;34.15;17.70;;;9.60;99.90;;;;;;4994520;28;20030;-70
2023/05/07 03:16:21;;;;;;;31.45;17.90;;;9.60;99.90;;;;;;4993817;28;20027;-69
2023/05/07 03:18:47;;;;;;;32.30;18.00;;;9.60;99.90;;;;;;4977098;28;20029;-70
2023/05/07 03:21:12;;;;;;;31.52;18.48;;;9.60;99.90;;;;;;4994309;28;20053;-69
2023/05/07 03:23:38;;;;;;;34.88;16.77;;;9.60;99.90;;;;;;4994545;28;20046;-70
2023/05/07 03:26:04;;;;;;;31.77;18.00;;;9.60;99.90;;;;;;4994354;28;20042;-71
2023/05/07 03:28:29;;;;;;;32.00;17.58;;;9.60;99.90;;;;;;4993484;28;20039;-72
2023/05/07 03:30:55;;;;;;;28.90;17.40;;;9.60;99.90;;;;;;4993699;28;20390;-69
2023/05/07 03:33:20;;;;;;;29.95;17.50;;;9.60;99.90;;;;;;4993864;28;20566;-71
2023/05/07 03:35:46;;;;;;;32.45;17.88;;;9.60;99.90;;;;;;4975554;28;20050;-68
2023/05/07 03:38:11;;;;;;;31.05;18.20;;;9.60;99.90;;;;;;4994482;28;20032;-68
2023/05/07 03:40:37;;;;;;;32.17;18.10;;;9.60;99.90;;;;;;4992751;28;20476;-70
2023/05/07 03:43:03;;;;;;;31.25;17.70;;;9.60;99.90;;;;;;4976793;28;20054;-69
2023/05/07 03:45:28;;;;;;;35.72;18.00;;;9.60;99.90;;;;;;4975924;28;20033;-68
2023/05/07 03:47:54;;;;;;;31.00;17.80;;;9.60;99.90;;;;;;4993420;28;20026;-70
2023/05/07 03:50:19;;;;;;;26.90;15.80;;;9.60;99.90;;;;;;4993889;28;20010;-69
2023/05/07 03:52:45;;;;;;;34.55;18.33;;;9.60;99.90;;;;;;4993360;28;20122;-71
2023/05/07 03:55:11;;;;;;;29.48;16.95;;;9.60;99.90;;;;;;4992914;28;20023;-69
2023/05/07 03:57:36;;;;;;;28.45;14.07;;;9.50;99.90;;;;;;4993796;28;20027;-73
2023/05/07 04:00:04;;;;;;;27.35;15.65;;;9.50;99.90;;;;;;4993632;28;20518;-68
2023/05/07 04:02:30;;;;;;;29.75;17.10;;;9.50;99.90;;;;;;4993270;28;20030;-71
2023/05/07 04:04:55;;;;;;;29.42;16.60;;;9.50;99.90;;;;;;4993708;28;20042;-71
2023/05/07 04:07:21;;;;;;;29.60;16.73;;;9.50;99.90;;;;;;4975826;28;20023;-68
2023/05/07 04:09:47;;;;;;;26.48;15.63;;;9.50;99.90;;;;;;4993137;28;20054;-69
2023/05/07 04:12:12;;;;;;;29.33;16.65;;;9.50;99.90;;;;;;4991902;28;20042;-70
2023/05/07 04:14:38;;;;;;;29.52;17.05;;;9.50;99.90;;;;;;4975246;28;20031;-70
2023/05/07 04:17:03;;;;;;;30.08;17.33;;;9.50;99.90;;;;;;4993143;28;20149;-70
2023/05/07 04:19:30;;;;;;;27.77;15.07;;;9.50;99.90;;;;;;4990927;28;20042;-68
2023/05/07 04:21:55;;;;;;;24.98;14.13;;;9.50;99.90;;;;;;4992107;28;20045;-72
2023/05/07 04:24:21;;;;;;;26.23;14.55;;;9.50;99.90;;;;;;4975695;28;20038;-75
2023/05/07 04:26:47;;;;;;;26.05;15.63;;;9.50;99.90;;;;;;4975234;28;20025;-67
2023/05/07 04:29:12;;;;;;;27.25;15.07;;;9.50;99.90;;;;;;4992160;28;20022;-72
2023/05/07 04:31:38;;;;;;;26.27;15.65;;;9.50;99.90;;;;;;4993044;28;20045;-70
2023/05/07 04:34:03;;;;;;;25.70;15.88;;;9.50;99.90;;;;;;4993109;28;20042;-71
2023/05/07 04:36:30;;;;;;;27.08;16.35;;;9.50;99.90;;;;;;4991794;28;20034;-70
2023/05/07 04:38:55;;;;;;;28.45;16.45;;;9.50;99.90;;;;;;4992688;28;20070;-69
2023/05/07 04:41:21;;;;;;;32.85;17.15;;;9.50;99.90;;;;;;4992813;28;20042;-69
2023/05/07 04:43:47;;;;;;;29.30;16.75;;;9.50;99.90;;;;;;4992176;28;20047;-69
2023/05/07 04:46:12;;;;;;;31.48;17.58;;;9.60;99.90;;;;;;4993074;28;20098;-69
2023/05/07 04:48:38;;;;;;;30.65;17.67;;;9.50;99.90;;;;;;4992802;28;20026;-70
2023/05/07 04:51:03;;;;;;;30.63;16.85;;;9.50;99.90;;;;;;4992692;28;21261;-71
2023/05/07 04:53:29;;;;;;;27.88;16.23;;;9.50;99.90;;;;;;4992902;28;20041;-68
2023/05/07 04:55:56;;;;;;;27.63;16.70;;;9.60;99.90;;;;;;4991298;28;20033;-68
2023/05/07 04:58:22;;;;;;;30.92;16.80;;;9.60;99.90;;;;;;4992191;28;20015;-70
2023/05/07 05:00:48;;;;;;;29.42;16.63;;;9.60;99.90;;;;;;4975081;28;20041;-70
2023/05/07 05:03:13;;;;;;;26.23;15.90;;;9.60;99.90;;;;;;4990756;28;20492;-71
2023/05/07 05:05:39;;;;;;;28.17;16.77;;;9.60;99.90;;;;;;4975051;28;20022;-69
2023/05/07 05:08:04;;;;;;;28.02;16.30;;;9.60;99.90;;;;;;4992608;28;20041;-69
2023/05/07 05:10:30;;;;;;;26.67;15.85;;;9.60;99.90;;;;;;4973986;28;20045;-68
2023/05/07 05:12:55;;;;;;;28.40;16.67;;;9.60;99.90;;;;;;4991311;28;20161;-69
2023/05/07 05:15:21;;;;;;;27.85;15.90;;;9.70;99.90;;;;;;4992532;28;20033;-69
2023/05/07 05:17:47;;;;;;;28.52;15.98;;;9.60;99.90;;;;;;4992150;28;20027;-67
2023/05/07 05:20:12;;;;;;;26.60;16.17;;;9.60;99.90;;;;;;4992479;28;20037;-69
2023/05/07 05:22:38;;;;;;;25.60;16.17;;;9.70;99.90;;;;;;4989601;28;20030;-69
2023/05/07 05:25:04;;;;;;;27.38;16.55;;;9.60;99.90;;;;;;4990658;28;20029;-70
2023/05/07 05:27:30;;;;;;;24.77;15.00;;;9.70;99.90;;;;;;4991927;28;20038;-68
2023/05/07 05:29:55;;;;;;;26.23;15.23;;;9.70;99.90;;;;;;4991453;28;20034;-69
2023/05/07 05:32:21;;;;;;;27.35;15.70;;;9.70;99.90;;;;;;4989754;28;20023;-70
2023/05/07 05:34:47;;;;;;;25.52;13.88;;;9.70;99.90;;;;;;4975059;28;20046;-68
2023/05/07 05:37:13;;;;;;;26.48;15.25;;;9.70;99.90;;;;;;4991610;28;20029;-68
2023/05/07 05:39:39;;;;;;;25.08;15.25;;;9.70;99.90;;;;;;4987708;28;20034;-69
2023/05/07 05:42:04;;;;;;;28.90;16.67;;;9.70;99.90;;;;;;4990317;28;20022;-71
2023/05/07 05:44:30;;;;;;;27.35;15.65;;;9.70;99.90;;;;;;4991460;28;20566;-69
2023/05/07 05:46:57;;;;;;;23.75;15.55;;;9.80;99.90;;;;;;4991590;28;20030;-70
2023/05/07 05:49:23;;;;;;;25.08;14.82;;;9.80;99.90;;;;;;4973862;28;20019;-69
2023/05/07 05:51:48;;;;;;;20.88;13.00;;;9.80;99.90;;;;;;4972261;28;20030;-70
2023/05/07 05:54:15;;;;;;;20.77;12.27;;;9.80;99.90;;;;;;4991347;28;20035;-70
2023/05/07 05:56:41;;;;;;;19.20;12.88;;;9.90;99.90;;;;;;4974000;28;20037;-70
2023/05/07 05:59:06;;;;;;;19.52;12.25;;;9.90;99.90;;;;;;4991526;28;20902;-69
2023/05/07 06:01:32;;;;;;;20.00;11.90;;;9.90;99.90;;;;;;4988351;28;20023;-70
2023/05/07 06:03:58;;;;;;;16.55;11.85;;;9.90;99.90;;;;;;4989161;28;20038;-68
2023/05/07 06:06:23;;;;;;;16.13;9.48;;;9.90;99.90;;;;;;4990030;28;20037;-70
2023/05/07 06:08:49;;;;;;;16.60;11.18;;;9.90;99.90;;;;;;4989198;28;20018;-69
2023/05/07 06:11:15;;;;;;;16.58;11.13;;;10.00;99.90;;;;;;4990567;28;20054;-69
2023/05/07 06:13:40;;;;;;;15.43;9.68;;;10.00;99.90;;;;;;4991374;28;20058;-71
2023/05/07 06:16:06;;;;;;;16.23;11.00;;;10.00;99.90;;;;;;4991394;28;20026;-70
2023/05/07 06:18:32;;;;;;;15.68;11.20;;;10.00;99.90;;;;;;4991506;28;20027;-73
2023/05/07 06:20:57;;;;;;;16.90;10.57;;;10.10;99.90;;;;;;4973331;28;20030;-70
2023/05/07 06:23:23;;;;;;;17.02;11.35;;;10.10;99.90;;;;;;4973784;28;20035;-70
2023/05/07 06:25:52;;;;;;;15.93;9.75;;;10.10;99.90;;;;;;4991193;28;20085;-71
2023/05/07 06:28:17;;;;;;;17.88;10.93;;;10.10;99.90;;;;;;4990310;28;20038;-68
2023/05/07 06:30:43;;;;;;;17.15;11.98;;;10.10;99.90;;;;;;4991208;28;20018;-69
2023/05/07 06:33:09;;;;;;;16.52;11.18;;;10.10;99.90;;;;;;4991128;28;20086;-68
2023/05/07 06:35:34;;;;;;;15.52;10.70;;;10.20;99.90;;;;;;4991135;28;20033;-68
2023/05/07 06:38:00;;;;;;;17.85;11.55;;;10.20;99.90;;;;;;4971560;28;20589;-69
2023/05/07 06:40:26;;;;;;;18.50;11.38;;;10.20;99.90;;;;;;4990750;28;20038;-69
2023/05/07 06:42:52;;;;;;;16.45;11.32;;;10.30;99.90;;;;;;4993217;28;20030;-70
2023/05/07 06:45:17;;;;;;;17.00;11.25;;;10.30;99.90;;;;;;4994417;28;20475;-72
2023/05/07 06:47:43;;;;;;;18.52;12.65;;;10.30;99.90;;;;;;4977560;28;20037;-69
2023/05/07 06:50:09;;;;;;;17.60;12.00;;;10.30;99.90;;;;;;4993648;28;20078;-68
2023/05/07 06:52:35;;;;;;;18.30;11.80;;;10.40;99.90;;;;;;4994342;28;20117;-68
2023/05/07 06:55:01;;;;;;;16.98;11.23;;;10.40;99.90;;;;;;4994765;28;20658;-67
2023/05/07 06:57:26;;;;;;;16.95;11.15;;;10.40;99.90;;;;;;4991381;28;20027;-69
2023/05/07 06:59:52;;;;;;;14.88;10.30;;;10.40;99.90;;;;;;4988412;28;20027;-69
2023/05/07 07:02:17;;;;;;;17.38;10.98;;;10.40;99.90;;;;;;4990111;28;20026;-69
2023/05/07 07:04:44;;;;;;;15.63;11.10;;;10.40;99.90;;;;;;4987087;28;20042;-69
2023/05/07 07:07:10;;;;;;;14.77;10.60;;;10.40;99.90;;;;;;4991566;28;20052;-69
2023/05/07 07:09:35;;;;;;;15.98;10.15;;;10.50;99.90;;;;;;4976447;28;20103;-69
2023/05/07 07:12:01;;;;;;;14.55;10.38;;;10.50;99.90;;;;;;4991460;28;20058;-70
2023/05/07 07:14:27;;;;;;;16.05;10.55;;;10.50;99.90;;;;;;4994011;28;20031;-69
2023/05/07 07:16:52;;;;;;;14.98;10.35;;;10.40;99.90;;;;;;4991521;28;20069;-71
2023/05/07 07:19:20;;;;;;;16.27;11.07;;;10.50;99.90;;;;;;4975788;28;20023;-69
2023/05/07 07:21:45;;;;;;;14.48;10.02;;;10.50;99.90;;;;;;4992480;28;20022;-69
2023/05/07 07:24:11;;;;;;;15.27;9.38;;;10.50;99.90;;;;;;4994222;28;20049;-71
2023/05/07 07:26:36;;;;;;;13.32;9.68;;;10.50;99.90;;;;;;4993949;28;20471;-73
2023/05/07 07:29:02;;;;;;;14.75;9.63;;;10.50;99.90;;;;;;4974689;28;20502;-70
2023/05/07 07:31:28;;;;;;;13.75;9.98;;;10.50;99.90;;;;;;4975242;28;20057;-69
2023/05/07 07:33:53;;;;;;;14.90;9.63;;;10.50;99.90;;;;;;4992525;28;20106;-69
2023/05/07 07:36:19;;;;;;;14.00;10.00;;;10.60;99.90;;;;;;4993749;28;20399;-70
2023/05/07 07:38:44;;;;;;;14.57;10.07;;;10.60;99.90;;;;;;4976284;28;20034;-71
2023/05/07 07:41:10;;;;;;;16.00;9.32;;;10.60;99.90;;;;;;4994069;28;20030;-68
2023/05/07 07:43:36;;;;;;;15.02;9.52;;;10.60;99.90;;;;;;4994073;28;20137;-71
2023/05/07 07:46:01;;;;;;;15.30;10.15;;;10.70;99.90;;;;;;4991620;28;20030;-68
2023/05/07 07:48:27;;;;;;;12.70;8.70;;;10.70;99.90;;;;;;4994065;28;20056;-67
2023/05/07 07:50:52;;;;;;;14.25;9.90;;;10.70;99.90;;;;;;4993065;28;20027;-69
2023/05/07 07:53:18;;;;;;;13.40;9.05;;;10.70;99.90;;;;;;4990853;28;20029;-68
2023/05/07 07:55:44;;;;;;;16.90;9.75;;;10.80;99.90;;;;;;4991145;28;20058;-70
2023/05/07 07:58:10;;;;;;;15.50;9.15;;;10.80;99.90;;;;;;4993031;28;20031;-68
2023/05/07 08:00:36;;;;;;;13.02;9.57;;;10.80;99.90;;;;;;4993511;28;20058;-67
2023/05/07 08:03:02;;;;;;;12.52;8.57;;;10.80;99.90;;;;;;4992150;28;20109;-69
2023/05/07 08:05:28;;;;;;;14.07;9.30;;;10.90;99.90;;;;;;4991694;28;20034;-68
2023/05/07 08:07:54;;;;;;;14.30;8.60;;;10.90;99.90;;;;;;4992064;28;20031;-68
2023/05/07 08:10:23;;;;;;;13.13;9.15;;;10.90;99.90;;;;;;4973586;28;20037;-70
2023/05/07 08:12:49;;;;;;;13.00;8.82;;;11.00;99.90;;;;;;4971576;28;20051;-67
2023/05/07 08:15:15;;;;;;;12.52;9.10;;;11.00;99.90;;;;;;4989907;28;20061;-68
2023/05/07 08:17:41;;;;;;;13.38;9.40;;;11.10;99.90;;;;;;4974965;28;20023;-69
2023/05/07 08:20:07;;;;;;;14.38;9.15;;;11.10;99.90;;;;;;4990944;28;20022;-67
2023/05/07 08:22:34;;;;;;;14.20;9.55;;;11.10;99.90;;;;;;4992286;28;20446;-68
2023/05/07 08:25:00;;;;;;;14.85;10.23;;;11.10;99.90;;;;;;4991967;28;20054;-70
2023/05/07 08:27:25;;;;;;;13.48;8.98;;;11.20;99.90;;;;;;4974876;28;20026;-67
2023/05/07 08:29:51;;;;;;;14.18;9.63;;;11.20;99.90;;;;;;4991643;28;20034;-67
2023/05/07 08:32:16;;;;;;;16.80;10.13;;;11.20;99.90;;;;;;4991047;28;20050;-67
2023/05/07 08:34:42;;;;;;;13.05;9.27;;;11.20;99.90;;;;;;4990929;28;20045;-71
2023/05/07 08:37:08;;;;;;;16.80;10.45;;;11.20;99.90;;;;;;4975979;28;20048;-66
2023/05/07 08:39:33;;;;;;;12.48;8.63;;;11.20;99.90;;;;;;4991140;28;20019;-69
2023/05/07 08:42:04;;;;;;;15.52;10.30;;;11.30;99.90;;;;;;4991210;28;20026;-68
2023/05/07 08:44:34;;;;;;;14.20;9.60;;;11.20;99.90;;;;;;4992467;28;20034;-68
2023/05/07 08:47:01;;;;;;;14.15;10.45;;;11.20;99.90;;;;;;4992405;28;20046;-69
2023/05/07 08:49:27;;;;;;;14.38;10.02;;;11.30;99.90;;;;;;4990002;28;20412;-68
2023/05/07 08:51:53;;;;;;;16.15;9.80;;;11.20;99.90;;;;;;4992248;28;20058;-67
2023/05/07 08:54:20;;;;;;;15.02;10.25;;;11.30;99.90;;;;;;4989576;28;20026;-67
2023/05/07 08:56:46;;;;;;;16.05;9.32;;;11.50;99.90;;;;;;4987400;28;20034;-71
2023/05/07 08:59:11;;;;;;;13.13;9.40;;;11.40;99.90;;;;;;4987232;28;20085;-72
2023/05/07 09:01:38;;;;;;;15.35;9.90;;;11.40;99.90;;;;;;4969107;28;20040;-69
2023/05/07 09:04:05;;;;;;;15.73;10.10;;;11.40;99.90;;;;;;4986514;28;20036;-70
2023/05/07 09:06:31;;;;;;;14.65;9.27;;;11.50;99.90;;;;;;4990636;28;20022;-68
2023/05/07 09:08:58;;;;;;;14.68;9.48;;;11.50;99.90;;;;;;4991915;28;20070;-69
2023/05/07 09:11:24;;;;;;;14.40;10.02;;;11.50;99.90;;;;;;4982214;28;20038;-67
2023/05/07 09:14:01;;;;;;;14.40;10.07;;;11.60;99.90;;;;;;4986973;28;20046;-68
2023/05/07 09:16:30;;;;;;;14.07;9.70;;;11.70;99.90;;;;;;4986355;28;20121;-69
2023/05/07 09:18:58;;;;;;;16.52;10.55;;;11.70;99.90;;;;;;4989121;28;20391;-68
2023/05/07 09:21:24;;;;;;;15.05;10.40;;;11.80;99.90;;;;;;4986686;28;20021;-69
2023/05/07 09:23:54;;;;;;;14.20;9.77;;;11.80;99.90;;;;;;4988942;28;20031;-69
2023/05/07 09:26:24;;;;;;;12.63;8.55;;;11.70;99.90;;;;;;4984015;28;20110;-71
2023/05/07 09:28:51;;;;;;;14.15;9.60;;;11.80;99.90;;;;;;4982263;28;20087;-72
2023/05/07 09:31:16;;;;;;;13.43;9.20;;;11.70;99.90;;;;;;4988418;28;20027;-68
2023/05/07 09:33:42;;;;;;;14.27;9.88;;;11.80;99.90;;;;;;4990365;28;20518;-70
2023/05/07 09:36:09;;;;;;;13.30;9.15;;;11.80;99.90;;;;;;4969840;28;20026;-70
2023/05/07 09:38:36;;;;;;;14.88;10.35;;;11.80;99.90;;;;;;4974051;28;20023;-68
2023/05/07 09:41:10;;;;;;;13.07;9.15;;;11.80;99.90;;;;;;4989312;28;20034;-68
2023/05/07 09:43:37;;;;;;;15.48;9.88;;;11.90;99.90;;;;;;4987527;28;20046;-70
2023/05/07 09:46:11;;;;;;;14.68;9.85;;;11.90;99.90;;;;;;4990041;28;20046;-69
2023/05/07 09:48:39;;;;;;;;;;;11.90;99.90;;;;;;4992089;28;20030;-69
2023/05/07 09:51:16;;;;;;;16.02;9.70;;;12.00;99.90;;;;;;4990681;28;19934;-69
2023/05/07 09:53:43;;;;;;;14.77;10.15;;;12.00;99.90;;;;;;4989645;28;20027;-68
2023/05/07 09:56:09;;;;;;;15.80;10.73;;;12.10;99.90;;;;;;4967637;28;20035;-68
2023/05/07 09:58:37;;;;;;;16.75;11.70;;;12.10;99.90;;;;;;4988885;28;20029;-71
2023/05/07 10:01:04;;;;;;;16.42;11.02;;;12.00;99.90;;;;;;4990224;28;20086;-70
2023/05/07 10:03:32;;;;;;;16.85;10.85;;;12.00;99.90;;;;;;4970925;28;20042;-68
2023/05/07 10:05:59;;;;;;;15.68;10.60;;;12.00;99.90;;;;;;4986321;28;20438;-72
2023/05/07 10:08:25;;;;;;;15.73;10.63;;;12.00;99.90;;;;;;4990198;28;20522;-70
2023/05/07 10:10:50;;;;;;;16.70;11.45;;;12.10;99.90;;;;;;4989264;28;20467;-70
2023/05/07 10:13:18;;;;;;;17.38;11.85;;;12.00;99.90;;;;;;4969794;28;20065;-70
2023/05/07 10:15:44;;;;;;;17.50;11.15;;;12.10;99.90;;;;;;4985460;28;20027;-71
2023/05/07 10:18:12;;;;;;;16.60;11.13;;;12.10;99.90;;;;;;4987627;28;20027;-71
2023/05/07 10:20:38;;;;;;;15.23;11.27;;;12.20;99.90;;;;;;4990231;28;20014;-67
2023/05/07 10:23:05;;;;;;;16.35;11.23;;;12.20;99.90;;;;;;4990996;28;20064;-70
2023/05/07 10:25:32;;;;;;;17.45;12.05;;;12.30;99.90;;;;;;4991437;28;20031;-70
2023/05/07 10:28:04;;;;;;;18.17;11.43;;;12.30;99.90;;;;;;4975728;28;20552;-72
2023/05/07 10:31:05;;;;;;;19.40;11.38;;;12.30;99.90;;;;;;4994249;28;20018;-70
2023/05/07 10:33:33;;;;;;;17.65;10.85;;;12.40;99.90;;;;;;4994665;28;20509;-69
2023/05/07 10:36:01;;;;;;;17.65;10.35;;;12.50;99.90;;;;;;4994183;28;20061;-69
2023/05/07 10:38:27;;;;;;;16.60;11.85;;;12.50;99.90;;;;;;4994667;28;20026;-69
2023/05/07 10:40:53;;;;;;;15.52;10.10;;;12.60;99.90;;;;;;4994254;28;20018;-70
2023/05/07 10:43:19;;;;;;;14.05;10.23;;;12.70;99.90;;;;;;4995124;28;20518;-70
2023/05/07 10:46:20;;;;;;;15.98;10.32;;;12.70;99.90;;;;;;4994374;28;20023;-68
2023/05/07 10:49:06;;;;;;;15.65;10.82;;;12.70;99.90;;;;;;4993696;28;20049;-68
2023/05/07 10:51:32;;;;;;;16.48;11.00;;;12.70;99.90;;;;;;4991259;28;20034;-68
2023/05/07 10:54:11;;;;;;;17.48;10.55;;;12.70;99.90;;;;;;4977614;28;20015;-68
2023/05/07 10:56:42;;;;;;;14.88;10.15;;;12.80;99.90;;;;;;4995336;28;20019;-68
2023/05/07 10:59:31;;;;;;;13.95;9.82;;;12.90;99.90;;;;;;4995476;28;20049;-69
2023/05/07 11:01:59;;;;;;;16.35;11.07;;;12.90;99.90;;;;;;4995323;28;20061;-67
2023/05/07 11:04:28;;;;;;;14.60;10.82;;;13.00;99.90;;;;;;4994527;28;20058;-69
2023/05/07 11:07:16;;;;;;;17.35;10.27;;;13.00;99.90;;;;;;4976997;28;20069;-68
2023/05/07 11:09:55;;;;;;;18.98;10.82;;;13.10;99.90;;;;;;4995374;28;20034;-70
2023/05/07 11:12:40;;;;;;;16.13;9.50;;;13.10;99.90;;;;;;4994111;28;20046;-68
2023/05/07 11:15:10;;;;;;;14.95;10.27;;;13.10;99.90;;;;;;4993852;28;20049;-68
2023/05/07 11:17:56;;;;;;;15.18;9.60;;;13.20;99.90;;;;;;4994753;28;20053;-68
2023/05/07 11:20:54;;;;;;;14.07;10.20;;;13.30;99.90;;;;;;4994382;28;20665;-69
2023/05/07 11:23:35;;;;;;;14.73;9.02;;;13.40;99.90;;;;;;4974133;28;20042;-69
2023/05/07 11:26:08;;;;;;;13.65;9.00;;;13.50;99.90;;;;;;4984520;28;20096;-69
2023/05/07 11:28:39;;;;;;;15.43;10.77;;;13.50;99.90;;;;;;4976741;28;20033;-68
2023/05/07 11:31:04;;;;;;;16.77;9.52;;;13.60;99.90;;;;;;4992807;28;20282;-69
2023/05/07 11:33:31;;;;;;;13.70;9.35;;;13.60;99.90;;;;;;4991484;28;20085;-68
2023/05/07 11:35:57;;;;;;;13.65;9.68;;;13.80;99.90;;;;;;4991804;28;20038;-68
2023/05/07 11:38:24;;;;;;;12.80;9.75;;;14.00;99.90;;;;;;4993952;28;20022;-71
2023/05/07 11:40:50;;;;;;;13.15;8.95;;;14.10;99.90;;;;;;4971938;28;20113;-69
2023/05/07 11:43:16;;;;;;;14.45;9.13;;;14.40;99.90;;;;;;4974866;28;20042;-69
2023/05/07 11:45:42;;;;;;;11.35;8.38;;;14.50;99.90;;;;;;4992146;28;20034;-69
2023/05/07 11:48:07;;;;;;;12.80;7.85;;;14.60;99.90;;;;;;4992281;28;20019;-71
2023/05/07 11:50:33;;;;;;;12.30;9.25;;;14.70;99.90;;;;;;4993064;28;20026;-71
2023/05/07 11:52:58;;;;;;;15.25;8.68;;;14.70;99.90;;;;;;4993796;28;20027;-68
2023/05/07 11:55:25;;;;;;;13.25;8.55;;;14.70;99.90;;;;;;4992172;28;20039;-69
2023/05/07 11:57:51;;;;;;;12.98;8.55;;;14.70;99.90;;;;;;4993887;28;20021;-69
2023/05/07 12:00:17;;;;;;;11.75;9.10;;;14.60;99.90;;;;;;4993236;28;20027;-69
2023/05/07 12:02:45;;;;;;;27.73;8.63;;;14.60;99.90;;;;;;4993267;28;20019;-68
2023/05/07 12:05:10;;;;;;;13.43;8.80;;;14.60;99.90;;;;;;4976094;28;20038;-71
2023/05/07 12:07:36;;;;;;;15.10;9.50;;;14.60;99.90;;;;;;4994001;28;20033;-68
2023/05/07 12:10:06;;;;;;;17.15;8.80;;;14.70;99.90;;;;;;4990847;28;20045;-69
2023/05/07 12:12:38;;;;;;;12.40;8.40;;;14.70;99.90;;;;;;4992596;28;20042;-69
2023/05/07 12:15:04;;;;;;;13.13;8.82;;;14.70;99.90;;;;;;4991798;28;20019;-70
2023/05/07 12:17:30;;;;;;;13.77;9.05;;;14.80;99.90;;;;;;4991591;28;20034;-71
2023/05/07 12:19:56;;;;;;;13.55;9.20;;;14.80;99.90;;;;;;4992340;28;20039;-69
2023/05/07 12:22:22;;;;;;;11.68;8.60;;;15.00;99.90;;;;;;4988790;28;20027;-69
2023/05/07 12:24:57;;;;;;;13.48;8.90;;;15.10;99.90;;;;;;4992895;28;20041;-69
2023/05/07 12:27:23;;;;;;;10.95;7.38;;;15.40;99.90;;;;;;4992179;28;20366;-71
2023/05/07 12:29:50;;;;;;;13.05;8.82;;;15.30;99.90;;;;;;4975551;28;20025;-69
2023/05/07 12:32:17;;;;;;;10.98;8.55;;;15.30;99.90;;;;;;4992743;28;20026;-71